Messwerte Langebaanweg

Temperatur

Temperatur
°C
1529330400 16.00 16.00 17
1529334000 17.00 17.00 17
1529337600 18.00 18.00 15
1529341200 19.00 19.00 14
1529344800 20.00 20.00 13
1529348400 21.00 21.00 13
1529352000 22.00 22.00 13
1529355600 23.00 23.00 12
1529359200 0.00 0.00 12
1529362800 1.00 1.00 12
1529366400 2.00 2.00 12
1529370000 3.00 3.00 11
1529373600 4.00 4.00
1529377200 5.00 5.00 11
1529380800 6.00 6.00 11
1529384400 7.00 7.00 12
1529388000 8.00 8.00 12
1529391600 9.00 9.00 12
1529395200 10.00 10.00 13
1529398800 11.00 11.00 13
1529402400 12.00 12.00
1529406000 13.00 13.00 15
1529409600 14.00 14.00 15
1529413200 15.00 15.00 15

Aktuellste Messwerte

Temperatur
15 °C
Feuchtigkeit
90 %
Wind
20 km/hWindrichtung: Nord
Luftdruck
1021 hPa
Messzeit: 19. Juni 2018, 16.00Datenquelle: METAR

Weitere Messstationen in der Nähe

Messstation Temperatur Entfernung
Kapstadt 17 °C 118 km
Calvinia 14 °C 225 km
Springbok 14 °C 368 km
George 19 °C 407 km
Beaufort West 15 °C 419 km
Plettenberg Bay 18 °C 493 km

Wind

Windrichtung Böen Mittelwind
° km/h km/h
1529330400 16.00 15.00 - 16.00 320° 15
1529334000 17.00 16.00 - 17.00 330° 10
1529337600 18.00 17.00 - 18.00 330° 10
1529341200 19.00 18.00 - 19.00 10° 5
1529344800 20.00 19.00 - 20.00 40° 5
1529348400 21.00 20.00 - 21.00 330° 10
1529352000 22.00 21.00 - 22.00 330° 5
1529355600 23.00 22.00 - 23.00 30° 5
1529359200 0.00 23.00 - 0.00 30° 5
1529362800 1.00 0.00 - 1.00 20° 5
1529366400 2.00 1.00 - 2.00 360° 5
1529370000 3.00 2.00 - 3.00 40° 5
1529373600 4.00 3.00 - 4.00
1529377200 5.00 4.00 - 5.00 40° 5
1529380800 6.00 5.00 - 6.00 30° 5
1529384400 7.00 6.00 - 7.00 60° 5
1529388000 8.00 7.00 - 8.00 20° 15
1529391600 9.00 8.00 - 9.00 30° 20
1529395200 10.00 9.00 - 10.00 10° 20
1529398800 11.00 10.00 - 11.00 20° 20
1529402400 12.00 11.00 - 12.00
1529406000 13.00 12.00 - 13.00 10° 20
1529409600 14.00 13.00 - 14.00 350° 30
1529413200 15.00 14.00 - 15.00 10° 20

Ihre Wetterstation

Fehlt Ihre Wetterstation auf unserem Portal?

Schreiben Sie an network@meteonews.ch

Klima

Wann ist es am wärmsten? Wann regnet es am wenigsten? Unsere Klimadaten geben Auskunft.